createdAt,value
2018-08-16T00:00:28.297Z,46.13
2018-08-16T00:02:56.822Z,47.60
2018-08-16T00:05:25.342Z,50.53
2018-08-16T00:07:54.047Z,44.37
2018-08-16T00:10:22.609Z,50.20
2018-08-16T00:12:51.463Z,50.87
2018-08-16T00:15:20.901Z,48.50
2018-08-16T00:17:49.380Z,53.47
2018-08-16T00:20:18.145Z,48.27
2018-08-16T00:22:47.166Z,48.30
2018-08-16T00:25:16.567Z,45.90
2018-08-16T00:27:45.249Z,50.07
2018-08-16T00:30:16.060Z,41.07
2018-08-16T00:32:44.908Z,46.33
2018-08-16T00:35:13.453Z,47.60
2018-08-16T00:37:42.014Z,41.90
2018-08-16T00:40:12.580Z,46.47
2018-08-16T00:42:41.162Z,41.70
2018-08-16T00:45:10.405Z,48.47
2018-08-16T00:47:38.869Z,43.17
2018-08-16T00:50:09.797Z,47.87
2018-08-16T00:52:38.294Z,50.50
2018-08-16T00:55:07.487Z,52.23
2018-08-16T00:57:36.309Z,43.43
2018-08-16T01:00:05.845Z,48.83
2018-08-16T01:02:34.765Z,46.63
2018-08-16T01:05:03.254Z,44.40
2018-08-16T01:07:31.788Z,44.93
2018-08-16T01:10:00.268Z,47.37
2018-08-16T01:12:28.890Z,41.90
2018-08-16T01:14:57.438Z,45.97
2018-08-16T01:17:26.018Z,45.07
2018-08-16T01:19:54.508Z,40.27
2018-08-16T01:22:23.006Z,45.87
2018-08-16T01:24:51.516Z,40.43
2018-08-16T01:27:20.015Z,38.97
2018-08-16T01:29:48.519Z,47.27
2018-08-16T01:32:17.043Z,46.70
2018-08-16T01:34:45.545Z,47.00
2018-08-16T01:37:14.057Z,49.60
2018-08-16T01:39:42.617Z,36.80
2018-08-16T01:42:11.129Z,43.93
2018-08-16T01:44:39.627Z,41.87
2018-08-16T01:47:08.375Z,43.30
2018-08-16T01:49:38.858Z,42.20
2018-08-16T01:52:07.422Z,45.83
2018-08-16T01:54:35.936Z,46.10
2018-08-16T01:57:04.665Z,43.10
2018-08-16T01:59:33.124Z,42.43
2018-08-16T02:02:01.721Z,45.03
2018-08-16T02:04:30.187Z,47.83
2018-08-16T02:06:58.714Z,40.40
2018-08-16T02:09:27.307Z,42.30
2018-08-16T02:11:55.806Z,49.37
2018-08-16T02:14:24.300Z,45.27
2018-08-16T02:16:52.989Z,43.60
2018-08-16T02:19:21.552Z,46.03
2018-08-16T02:21:50.136Z,45.77
2018-08-16T02:24:18.635Z,46.83
2018-08-16T02:26:47.159Z,51.20
2018-08-16T02:29:15.710Z,43.20
2018-08-16T02:31:44.277Z,39.57
2018-08-16T02:34:12.856Z,48.30
2018-08-16T02:36:41.414Z,38.83
2018-08-16T02:39:10.666Z,42.27
2018-08-16T02:41:39.913Z,43.23
2018-08-16T02:44:08.981Z,44.90
2018-08-16T02:46:37.497Z,43.13
2018-08-16T02:49:06.155Z,43.47
2018-08-16T02:51:34.678Z,37.37
2018-08-16T02:54:03.145Z,41.50
2018-08-16T02:56:31.683Z,45.30
2018-08-16T02:59:00.230Z,42.47
2018-08-16T03:01:28.815Z,53.43
2018-08-16T03:03:57.304Z,44.13
2018-08-16T03:06:25.815Z,45.47
2018-08-16T03:08:54.362Z,58.77
2018-08-16T03:11:22.894Z,49.93
2018-08-16T03:13:51.406Z,60.83
2018-08-16T03:16:19.983Z,45.97
2018-08-16T03:18:48.524Z,45.23
2018-08-16T03:21:17.041Z,44.50
2018-08-16T03:23:45.563Z,43.63
2018-08-16T03:26:14.189Z,52.17
2018-08-16T03:28:42.690Z,48.30
2018-08-16T03:31:11.790Z,45.17
2018-08-16T03:33:40.466Z,54.10
2018-08-16T03:36:09.123Z,70.33
2018-08-16T03:38:37.638Z,47.60
2018-08-16T03:41:06.287Z,42.93
2018-08-16T03:43:36.376Z,50.50
2018-08-16T03:46:05.837Z,49.20
2018-08-16T03:48:34.326Z,48.40
2018-08-16T03:51:02.826Z,48.03
2018-08-16T03:53:31.738Z,47.70
2018-08-16T03:56:00.223Z,46.60
2018-08-16T03:58:28.748Z,45.13
2018-08-16T04:00:57.279Z,47.67
2018-08-16T04:03:25.771Z,46.07
2018-08-16T04:05:54.439Z,47.10
2018-08-16T04:08:22.941Z,48.70
2018-08-16T04:10:51.506Z,47.83
2018-08-16T04:13:20.002Z,48.90
2018-08-16T04:15:48.525Z,46.37
2018-08-16T04:18:17.052Z,45.33
2018-08-16T04:20:45.546Z,58.77
2018-08-16T04:23:14.377Z,53.97
2018-08-16T04:25:43.201Z,53.77
2018-08-16T04:28:12.133Z,46.87
2018-08-16T04:30:40.661Z,46.87
2018-08-16T04:33:10.249Z,45.53
2018-08-16T04:35:43.547Z,51.10
2018-08-16T04:38:12.397Z,45.00
2018-08-16T04:40:40.908Z,43.30
2018-08-16T04:43:09.444Z,45.37
2018-08-16T04:45:38.175Z,45.87
2018-08-16T04:48:07.154Z,46.07
2018-08-16T04:50:35.734Z,47.07
2018-08-16T04:53:04.420Z,39.50
2018-08-16T04:55:33.075Z,39.07
2018-08-16T04:58:01.543Z,48.67
2018-08-16T05:00:30.965Z,36.37
2018-08-16T05:02:59.452Z,41.30
2018-08-16T05:05:27.947Z,39.87
2018-08-16T05:07:56.506Z,30.23
2018-08-16T05:10:25.035Z,38.70
2018-08-16T05:12:53.528Z,34.87
2018-08-16T05:15:22.098Z,42.23
2018-08-16T05:17:50.577Z,32.77
2018-08-16T05:20:19.130Z,40.77
2018-08-16T05:22:47.707Z,38.20
2018-08-16T05:25:16.246Z,31.53
2018-08-16T05:27:44.718Z,35.13
2018-08-16T05:30:13.661Z,31.50
2018-08-16T05:32:42.348Z,32.30
2018-08-16T05:35:10.942Z,30.87
2018-08-16T05:37:39.491Z,37.57
2018-08-16T05:40:09.467Z,26.87
2018-08-16T05:42:38.385Z,27.63
2018-08-16T05:45:07.170Z,24.90
2018-08-16T05:47:36.348Z,27.43
2018-08-16T05:50:06.867Z,28.07
2018-08-16T05:52:35.447Z,23.33
2018-08-16T05:55:04.118Z,26.33
2018-08-16T05:57:32.613Z,24.60
2018-08-16T06:00:01.147Z,28.53
2018-08-16T06:02:29.942Z,19.60
2018-08-16T06:04:58.819Z,19.47
2018-08-16T06:07:27.403Z,23.33
2018-08-16T06:09:55.918Z,27.30
2018-08-16T06:12:25.363Z,21.73
2018-08-16T06:14:53.873Z,20.07
2018-08-16T06:17:22.411Z,17.93
2018-08-16T06:19:50.944Z,21.80
2018-08-16T06:22:19.486Z,20.13
2018-08-16T06:24:48.054Z,22.23
2018-08-16T06:27:16.599Z,24.80
2018-08-16T06:29:45.182Z,18.90
2018-08-16T06:32:13.690Z,17.40
2018-08-16T06:34:42.298Z,21.03
2018-08-16T06:37:10.846Z,20.23
2018-08-16T06:39:39.471Z,16.90
2018-08-16T06:42:07.995Z,16.73
2018-08-16T06:44:37.150Z,21.23
2018-08-16T06:47:05.755Z,16.60
2018-08-16T06:49:34.314Z,20.90
2018-08-16T06:52:02.844Z,18.33
2018-08-16T06:54:31.340Z,18.53
2018-08-16T06:56:59.842Z,22.17
2018-08-16T06:59:28.395Z,22.37
2018-08-16T07:01:56.865Z,21.53
2018-08-16T07:04:25.371Z,17.97
2018-08-16T07:06:53.974Z,19.23
2018-08-16T07:09:22.485Z,21.60
2018-08-16T07:11:51.007Z,18.00
2018-08-16T07:14:19.530Z,18.17
2018-08-16T07:16:48.681Z,19.53
2018-08-16T07:19:17.235Z,16.57
2018-08-16T07:21:45.781Z,20.30
2018-08-16T07:24:14.285Z,17.77
2018-08-16T07:26:42.806Z,16.53
2018-08-16T07:29:11.349Z,14.20
2018-08-16T07:31:39.929Z,23.47
2018-08-16T07:34:08.453Z,19.23
2018-08-16T07:36:37.031Z,15.40
2018-08-16T07:39:08.437Z,15.03
2018-08-16T07:41:37.002Z,16.70
2018-08-16T07:44:05.528Z,13.83
2018-08-16T07:46:34.361Z,13.93
2018-08-16T07:49:02.890Z,17.17
2018-08-16T07:51:31.536Z,12.70
2018-08-16T07:54:00.633Z,10.67
2018-08-16T07:56:29.150Z,11.77
2018-08-16T07:58:57.719Z,12.67
2018-08-16T08:01:26.258Z,10.47
2018-08-16T08:03:54.770Z,10.10
2018-08-16T08:06:23.381Z,14.17
2018-08-16T08:08:51.960Z,10.27
2018-08-16T08:11:20.491Z,12.20
2018-08-16T08:13:49.025Z,16.90
2018-08-16T08:16:17.544Z,10.40
2018-08-16T08:18:46.051Z,10.07
2018-08-16T08:21:14.627Z,10.20
2018-08-16T08:23:49.862Z,8.90
2018-08-16T08:26:18.801Z,10.20
2018-08-16T08:28:47.334Z,8.90
2018-08-16T08:31:15.875Z,9.03
2018-08-16T08:33:44.596Z,15.33
2018-08-16T08:36:24.385Z,10.07
2018-08-16T08:38:53.024Z,10.63
2018-08-16T08:41:21.523Z,11.17
2018-08-16T08:44:01.251Z,6.80
2018-08-16T08:46:29.771Z,12.20
2018-08-16T08:48:58.321Z,11.87
2018-08-16T08:51:26.851Z,15.30
2018-08-16T08:54:07.640Z,8.43
2018-08-16T08:56:47.237Z,10.83
2018-08-16T08:59:15.785Z,10.67
2018-08-16T09:01:45.059Z,6.83
2018-08-16T09:04:13.570Z,9.40
2018-08-16T09:06:42.107Z,7.53
2018-08-16T09:09:10.651Z,5.83
2018-08-16T09:11:50.367Z,12.57
2018-08-16T09:14:30.237Z,9.70
2018-08-16T09:16:58.891Z,8.27
2018-08-16T09:19:27.390Z,8.33
2018-08-16T09:21:55.883Z,7.10
2018-08-16T09:24:24.406Z,12.63
2018-08-16T09:26:52.884Z,8.10
2018-08-16T09:30:37.513Z,10.97
2018-08-16T09:33:17.395Z,9.80
2018-08-16T09:35:45.892Z,8.70
2018-08-16T09:38:14.369Z,7.57
2018-08-16T09:40:42.934Z,9.23
2018-08-16T09:43:11.421Z,6.67
2018-08-16T09:46:58.859Z,8.87
2018-08-16T09:49:27.924Z,8.50
2018-08-16T09:51:56.536Z,7.93
2018-08-16T09:54:25.153Z,8.27
2018-08-16T09:56:54.290Z,9.60
2018-08-16T09:59:22.766Z,6.57
2018-08-16T10:01:51.249Z,6.87
2018-08-16T10:04:19.876Z,7.30
2018-08-16T10:06:48.424Z,5.50
2018-08-16T10:09:19.659Z,8.60
2018-08-16T10:11:48.598Z,6.97
2018-08-16T10:14:17.418Z,5.60
2018-08-16T10:16:45.986Z,6.47
2018-08-16T10:19:14.554Z,9.80
2018-08-16T10:21:43.149Z,7.90
2018-08-16T10:24:11.734Z,6.23
2018-08-16T10:26:40.321Z,7.50
2018-08-16T10:29:09.283Z,11.60
2018-08-16T10:31:37.933Z,6.47
2018-08-16T10:34:06.462Z,5.67
2018-08-16T10:36:35.013Z,5.90
2018-08-16T10:39:04.774Z,5.97
2018-08-16T10:41:33.306Z,6.20
2018-08-16T10:44:01.827Z,9.13
2018-08-16T10:46:30.369Z,7.77
2018-08-16T10:48:58.865Z,9.90
2018-08-16T10:51:27.356Z,5.33
2018-08-16T10:53:55.965Z,6.10
2018-08-16T10:56:24.487Z,5.77
2018-08-16T10:58:53.034Z,6.93
2018-08-16T11:01:21.604Z,8.23
2018-08-16T11:03:50.187Z,9.07
2018-08-16T11:06:18.701Z,7.07
2018-08-16T11:08:47.238Z,5.67
2018-08-16T11:11:15.901Z,9.20
2018-08-16T11:13:44.437Z,9.40
2018-08-16T11:16:12.998Z,8.60
2018-08-16T11:18:41.662Z,8.20
2018-08-16T11:21:10.146Z,8.90
2018-08-16T11:23:38.682Z,5.63
2018-08-16T11:26:07.215Z,6.40
2018-08-16T11:28:35.719Z,6.60
2018-08-16T11:31:04.596Z,6.63
2018-08-16T11:33:33.155Z,11.70
2018-08-16T11:36:01.643Z,5.90
2018-08-16T11:38:30.141Z,12.83
2018-08-16T11:40:58.670Z,6.40
2018-08-16T11:43:27.211Z,7.60
2018-08-16T11:45:55.934Z,6.23
2018-08-16T11:48:24.461Z,6.23
2018-08-16T11:50:52.977Z,8.17
2018-08-16T11:53:21.473Z,7.33
2018-08-16T11:55:49.941Z,6.27
2018-08-16T11:58:18.735Z,7.80
2018-08-16T12:00:47.266Z,9.83
2018-08-16T12:03:15.791Z,7.70
2018-08-16T12:05:44.322Z,8.07
2018-08-16T12:08:12.903Z,10.07
2018-08-16T12:10:41.527Z,7.23
2018-08-16T12:13:10.027Z,7.93
2018-08-16T12:15:38.566Z,9.17
2018-08-16T12:18:07.102Z,9.70
2018-08-16T12:20:35.609Z,7.87
2018-08-16T12:23:04.102Z,8.10
2018-08-16T12:25:32.845Z,9.83
2018-08-16T12:28:01.396Z,10.67
2018-08-16T12:30:29.923Z,8.27
2018-08-16T12:32:58.494Z,10.07
2018-08-16T12:35:26.971Z,11.53
2018-08-16T12:37:55.555Z,6.70
2018-08-16T12:40:24.059Z,9.00
2018-08-16T12:42:52.673Z,8.53
2018-08-16T12:45:21.242Z,11.70
2018-08-16T12:47:49.795Z,6.87
2018-08-16T12:50:18.397Z,6.70
2018-08-16T12:52:47.110Z,8.07
2018-08-16T12:55:15.719Z,9.77
2018-08-16T12:57:44.370Z,11.00
2018-08-16T13:00:16.633Z,11.03
2018-08-16T13:02:45.759Z,10.53
2018-08-16T13:05:14.370Z,7.57
2018-08-16T13:07:42.918Z,7.80
2018-08-16T13:10:12.423Z,11.13
2018-08-16T13:12:41.027Z,10.27
2018-08-16T13:15:10.332Z,9.70
2018-08-16T13:17:39.549Z,7.07
2018-08-16T13:20:08.677Z,12.00
2018-08-16T13:22:37.190Z,6.90
2018-08-16T13:25:06.215Z,14.17
2018-08-16T13:27:34.852Z,12.90
2018-08-16T13:30:03.598Z,11.70
2018-08-16T13:32:32.173Z,10.83
2018-08-16T13:35:00.672Z,11.20
2018-08-16T13:37:29.170Z,9.07
2018-08-16T13:39:57.708Z,9.43
2018-08-16T13:42:26.285Z,11.30
2018-08-16T13:44:54.736Z,8.67
2018-08-16T13:47:23.306Z,13.50
2018-08-16T13:49:51.834Z,10.20
2018-08-16T13:52:20.355Z,13.43
2018-08-16T13:54:48.894Z,9.67
2018-08-16T13:57:17.745Z,13.97
2018-08-16T13:59:46.265Z,10.17
2018-08-16T14:02:14.807Z,13.13
2018-08-16T14:04:43.364Z,12.00
2018-08-16T14:07:11.888Z,12.27
2018-08-16T14:09:40.388Z,8.50
2018-08-16T14:12:08.946Z,10.90
2018-08-16T14:14:37.443Z,10.67
2018-08-16T14:17:06.298Z,9.50
2018-08-16T14:19:34.997Z,8.77
2018-08-16T14:22:03.518Z,10.27
2018-08-16T14:24:32.062Z,14.13
2018-08-16T14:27:00.625Z,10.40
2018-08-16T14:29:29.181Z,7.53
2018-08-16T14:31:57.779Z,10.60
2018-08-16T14:34:26.264Z,10.13
2018-08-16T14:36:54.842Z,10.40
2018-08-16T14:39:23.376Z,9.50
2018-08-16T14:41:51.834Z,12.40
2018-08-16T14:44:21.337Z,11.20
2018-08-16T14:46:49.850Z,13.70
2018-08-16T14:49:18.491Z,17.77
2018-08-16T14:51:47.057Z,9.80
2018-08-16T14:54:15.549Z,11.00
2018-08-16T14:56:44.292Z,12.53
2018-08-16T14:59:12.870Z,9.50
2018-08-16T15:01:41.424Z,12.90
2018-08-16T15:04:10.061Z,11.30
2018-08-16T15:06:38.598Z,13.30
2018-08-16T15:09:09.189Z,11.17
2018-08-16T15:11:37.843Z,10.90
2018-08-16T15:14:06.362Z,10.33
2018-08-16T15:16:34.876Z,11.67
2018-08-16T15:19:03.422Z,17.53
2018-08-16T15:21:31.932Z,13.67
2018-08-16T15:24:00.535Z,11.87
2018-08-16T15:26:29.259Z,11.30
2018-08-16T15:28:58.271Z,15.60
2018-08-16T15:31:27.751Z,13.73
2018-08-16T15:33:56.641Z,12.77
2018-08-16T15:36:25.742Z,11.67
2018-08-16T15:38:55.045Z,14.03
2018-08-16T15:41:24.250Z,16.80
2018-08-16T15:43:53.095Z,14.73
2018-08-16T15:46:22.015Z,12.90
2018-08-16T15:48:51.054Z,16.43
2018-08-16T15:51:20.127Z,15.03
2018-08-16T15:53:49.187Z,13.47
2018-08-16T15:56:18.566Z,14.87
2018-08-16T15:58:47.670Z,13.23
2018-08-16T16:01:16.741Z,13.73
2018-08-16T16:03:45.845Z,12.47
2018-08-16T16:06:14.445Z,14.63
2018-08-16T16:08:43.089Z,13.80
2018-08-16T16:11:12.152Z,12.40
2018-08-16T16:13:41.087Z,13.53
2018-08-16T16:16:10.180Z,15.80
2018-08-16T16:18:38.677Z,14.47
2018-08-16T16:21:07.801Z,14.13
2018-08-16T16:23:36.963Z,12.13
2018-08-16T16:26:06.071Z,14.03
2018-08-16T16:28:34.659Z,14.90
2018-08-16T16:31:03.791Z,12.50
2018-08-16T16:33:33.204Z,12.27
2018-08-16T16:36:02.214Z,13.43
2018-08-16T16:38:31.007Z,14.70
2018-08-16T16:40:59.520Z,10.90
2018-08-16T16:43:28.591Z,10.60
2018-08-16T16:45:57.541Z,15.33
2018-08-16T16:48:26.788Z,12.17
2018-08-16T16:50:56.134Z,13.60
2018-08-16T16:53:24.703Z,11.77
2018-08-16T16:55:53.258Z,10.67
2018-08-16T16:58:21.837Z,13.67
2018-08-16T17:00:50.379Z,11.80
2018-08-16T17:20:35.507Z,11.87
2018-08-16T17:23:04.509Z,12.50
2018-08-16T17:25:33.445Z,7.27
2018-08-16T17:28:02.529Z,8.50
2018-08-16T17:30:31.655Z,8.60
2018-08-16T17:33:00.613Z,9.73
2018-08-16T17:52:44.256Z,8.43
2018-08-16T17:55:12.927Z,8.03
2018-08-16T17:57:41.530Z,8.17
2018-08-16T18:00:11.079Z,9.20
2018-08-16T18:02:39.599Z,10.30
2018-08-16T18:05:08.137Z,10.10
2018-08-16T18:24:52.631Z,7.33
2018-08-16T18:27:21.142Z,8.10
2018-08-16T18:47:06.153Z,9.20
2018-08-16T18:49:34.682Z,8.30
2018-08-16T18:52:03.536Z,10.57
2018-08-16T18:54:32.357Z,10.10
2018-08-16T18:57:01.015Z,9.37
2018-08-16T18:59:29.573Z,9.60
2018-08-16T19:01:59.214Z,8.67
2018-08-16T19:04:27.746Z,17.20
2018-08-16T19:06:56.402Z,8.57
2018-08-16T19:09:24.906Z,8.60
2018-08-16T19:11:54.414Z,8.53
2018-08-16T19:14:23.034Z,11.17
2018-08-16T19:16:51.721Z,12.53
2018-08-16T19:19:20.193Z,8.93
2018-08-16T19:21:48.721Z,13.70
2018-08-16T19:24:17.439Z,8.50
2018-08-16T19:26:45.950Z,13.90
2018-08-16T19:29:14.728Z,10.90
2018-08-16T19:31:43.407Z,12.33
2018-08-16T19:34:11.943Z,10.10
2018-08-16T19:36:40.495Z,12.70
2018-08-16T19:39:12.049Z,6.97
2018-08-16T19:41:40.904Z,10.60
2018-08-16T19:44:10.258Z,6.63
2018-08-16T19:46:38.814Z,8.63
2018-08-16T19:49:07.798Z,13.73
2018-08-16T19:51:36.293Z,10.70
2018-08-16T19:54:04.877Z,9.30
2018-08-16T19:56:33.391Z,9.83
2018-08-16T19:59:01.935Z,14.50
2018-08-16T20:01:30.538Z,9.90
2018-08-16T20:03:59.040Z,8.60
2018-08-16T20:06:27.690Z,8.27
2018-08-16T20:08:56.177Z,13.83
2018-08-16T20:11:24.706Z,6.90
2018-08-16T20:13:53.227Z,8.70
2018-08-16T20:16:21.794Z,7.57
2018-08-16T20:18:50.266Z,9.87
2018-08-16T20:21:18.803Z,5.43
2018-08-16T20:23:47.303Z,10.60
2018-08-16T20:26:15.790Z,8.03
2018-08-16T20:28:44.338Z,5.53
2018-08-16T20:31:13.102Z,7.70
2018-08-16T20:33:41.611Z,6.60
2018-08-16T20:36:10.189Z,4.90
2018-08-16T20:38:38.671Z,5.13
2018-08-16T20:41:07.241Z,7.30
2018-08-16T20:43:35.863Z,4.07
2018-08-16T20:46:04.619Z,9.30
2018-08-16T20:48:34.864Z,4.57
2018-08-16T20:51:03.377Z,13.50
2018-08-16T20:53:31.889Z,6.00
2018-08-16T20:56:00.437Z,6.83
2018-08-16T20:58:29.941Z,5.03
2018-08-16T21:00:58.504Z,5.10
2018-08-16T21:03:26.956Z,5.03
2018-08-16T21:05:55.475Z,5.27
2018-08-16T21:08:24.026Z,3.03
2018-08-16T21:10:52.522Z,4.80
2018-08-16T21:13:21.039Z,3.63
2018-08-16T21:15:49.638Z,4.97
2018-08-16T21:18:18.204Z,3.60
2018-08-16T21:20:46.779Z,3.00
2018-08-16T21:23:15.318Z,5.20
2018-08-16T21:25:43.801Z,7.53
2018-08-16T21:28:12.899Z,6.20
2018-08-16T21:30:41.488Z,4.87
2018-08-16T21:33:11.702Z,7.30
2018-08-16T21:35:40.227Z,4.87
2018-08-16T21:38:08.720Z,5.47
2018-08-16T21:40:37.263Z,6.80
2018-08-16T21:43:05.982Z,6.60
2018-08-16T21:45:34.598Z,9.37
2018-08-16T21:48:03.168Z,23.83
2018-08-16T21:50:31.838Z,5.87
2018-08-16T21:53:00.318Z,5.50
2018-08-16T21:55:28.825Z,10.50
2018-08-16T21:57:57.393Z,7.13
2018-08-16T22:00:47.649Z,5.97
2018-08-16T22:03:18.007Z,8.90
2018-08-16T22:05:55.959Z,5.53
2018-08-16T22:08:25.875Z,7.13
2018-08-16T22:10:54.325Z,9.43
2018-08-16T22:13:22.842Z,6.23
2018-08-16T22:15:51.343Z,8.77
2018-08-16T22:18:19.945Z,5.37
2018-08-16T22:20:48.548Z,4.80
2018-08-16T22:23:17.043Z,6.73
2018-08-16T22:25:45.582Z,6.60
2018-08-16T22:28:14.553Z,7.30
2018-08-16T22:30:43.140Z,8.67
2018-08-16T22:33:11.698Z,7.60
2018-08-16T22:35:40.271Z,6.47
2018-08-16T22:38:08.773Z,6.50
2018-08-16T22:40:37.229Z,9.53
2018-08-16T22:43:06.277Z,8.20
2018-08-16T22:45:34.793Z,5.90
2018-08-16T22:48:03.297Z,7.60
2018-08-16T22:50:32.240Z,10.70
2018-08-16T22:53:00.752Z,5.13
2018-08-16T22:55:29.230Z,8.30
2018-08-16T22:57:57.864Z,6.10
2018-08-16T23:00:26.354Z,5.00
2018-08-16T23:02:55.387Z,4.70
2018-08-16T23:05:23.904Z,5.90
2018-08-16T23:07:52.733Z,5.60
2018-08-16T23:10:21.800Z,3.80
2018-08-16T23:12:50.399Z,4.87
2018-08-16T23:15:18.895Z,4.73
2018-08-16T23:17:47.829Z,5.70
2018-08-16T23:20:16.960Z,4.87
2018-08-16T23:22:45.485Z,5.83
2018-08-16T23:25:14.561Z,3.80
2018-08-16T23:27:43.302Z,7.20
2018-08-16T23:30:13.985Z,6.77
2018-08-16T23:32:42.815Z,5.33
2018-08-16T23:35:11.686Z,4.87
2018-08-16T23:37:40.241Z,6.90
2018-08-16T23:40:11.063Z,4.20
2018-08-16T23:42:40.232Z,4.87
2018-08-16T23:45:09.920Z,5.30
2018-08-16T23:47:38.491Z,9.57
2018-08-16T23:50:09.980Z,7.90
2018-08-16T23:52:38.594Z,6.33
2018-08-16T23:55:08.490Z,7.27
2018-08-16T23:57:37.061Z,5.00
